sensor_id;sensor_type;location;lat;lon;timestamp;pressure;altitude;pressure_sealevel;temperature;humidity
62025;BME280;47978;49.118;12.146;2023-01-08T00:03:34;97159.28;;;2.44;96.76
62025;BME280;47978;49.118;12.146;2023-01-08T00:07:35;97163.81;;;2.28;97.06
62025;BME280;47978;49.118;12.146;2023-01-08T00:11:37;97152.66;;;2.35;98.42
62025;BME280;47978;49.118;12.146;2023-01-08T00:15:39;97153.28;;;2.47;98.17
62025;BME280;47978;49.118;12.146;2023-01-08T00:19:41;97137.28;;;2.61;98.58
62025;BME280;47978;49.118;12.146;2023-01-08T00:23:42;97135.97;;;2.68;99.35
62025;BME280;47978;49.118;12.146;2023-01-08T00:27:44;97139.84;;;2.78;99.86
62025;BME280;47978;49.118;12.146;2023-01-08T00:31:47;97127.00;;;2.78;98.82
62025;BME280;47978;49.118;12.146;2023-01-08T00:35:48;97116.34;;;2.72;99.03
62025;BME280;47978;49.118;12.146;2023-01-08T00:39:50;97106.81;;;2.79;98.99
62025;BME280;47978;49.118;12.146;2023-01-08T00:43:51;97101.38;;;2.84;99.01
62025;BME280;47978;49.118;12.146;2023-01-08T00:47:54;97095.69;;;3.01;99.56
62025;BME280;47978;49.118;12.146;2023-01-08T00:51:55;97094.31;;;2.99;99.68
62025;BME280;47978;49.118;12.146;2023-01-08T00:56:00;97081.25;;;3.06;99.89
62025;BME280;47978;49.118;12.146;2023-01-08T01:00:02;97081.34;;;3.31;99.42
62025;BME280;47978;49.118;12.146;2023-01-08T01:04:05;97089.53;;;3.36;99.44
62025;BME280;47978;49.118;12.146;2023-01-08T01:08:06;97097.75;;;3.47;99.65
62025;BME280;47978;49.118;12.146;2023-01-08T01:12:07;97083.53;;;3.50;99.46
62025;BME280;47978;49.118;12.146;2023-01-08T01:16:09;97089.84;;;3.60;98.93
62025;BME280;47978;49.118;12.146;2023-01-08T01:20:12;97090.97;;;3.65;98.99
62025;BME280;47978;49.118;12.146;2023-01-08T01:24:14;97093.44;;;3.71;98.75
62025;BME280;47978;49.118;12.146;2023-01-08T01:28:15;97092.59;;;3.81;98.60
62025;BME280;47978;49.118;12.146;2023-01-08T01:32:16;97093.69;;;3.75;98.27
62025;BME280;47978;49.118;12.146;2023-01-08T01:36:20;97090.97;;;3.75;98.36
62025;BME280;47978;49.118;12.146;2023-01-08T01:40:21;97086.88;;;3.77;98.49
62025;BME280;47978;49.118;12.146;2023-01-08T01:44:33;97089.59;;;3.77;98.71
62025;BME280;47978;49.118;12.146;2023-01-08T01:48:36;97082.22;;;3.78;97.67
62025;BME280;47978;49.118;12.146;2023-01-08T01:52:39;97084.13;;;3.77;97.70
62025;BME280;47978;49.118;12.146;2023-01-08T01:56:42;97075.38;;;3.86;97.58
62025;BME280;47978;49.118;12.146;2023-01-08T02:00:44;97072.09;;;3.78;97.63
62025;BME280;47978;49.118;12.146;2023-01-08T02:04:45;97070.44;;;3.72;97.71
62025;BME280;47978;49.118;12.146;2023-01-08T02:08:50;97067.72;;;3.72;97.23
62025;BME280;47978;49.118;12.146;2023-01-08T02:12:56;97063.34;;;3.76;96.36
62025;BME280;47978;49.118;12.146;2023-01-08T02:17:02;97058.13;;;3.70;97.46
62025;BME280;47978;49.118;12.146;2023-01-08T02:21:06;97057.91;;;3.81;96.99
62025;BME280;47978;49.118;12.146;2023-01-08T02:25:11;97052.97;;;3.94;97.09
62025;BME280;47978;49.118;12.146;2023-01-08T02:29:19;97055.69;;;3.83;97.03
62025;BME280;47978;49.118;12.146;2023-01-08T02:33:25;97048.59;;;3.93;96.69
62025;BME280;47978;49.118;12.146;2023-01-08T02:37:27;97048.31;;;3.94;96.13
62025;BME280;47978;49.118;12.146;2023-01-08T02:41:29;97043.66;;;3.90;95.89
62025;BME280;47978;49.118;12.146;2023-01-08T02:45:37;97041.72;;;3.70;94.91
62025;BME280;47978;49.118;12.146;2023-01-08T02:49:44;97030.00;;;3.59;94.66
62025;BME280;47978;49.118;12.146;2023-01-08T02:53:47;97024.78;;;3.42;93.86
62025;BME280;47978;49.118;12.146;2023-01-08T02:57:50;97023.44;;;3.45;92.36
62025;BME280;47978;49.118;12.146;2023-01-08T03:01:53;97019.31;;;3.42;94.89
62025;BME280;47978;49.118;12.146;2023-01-08T03:05:55;97020.69;;;3.60;97.51
62025;BME280;47978;49.118;12.146;2023-01-08T03:09:58;97018.53;;;3.67;97.92
62025;BME280;47978;49.118;12.146;2023-01-08T03:14:00;97028.88;;;3.86;99.02
62025;BME280;47978;49.118;12.146;2023-01-08T03:18:06;97025.88;;;4.02;99.04
62025;BME280;47978;49.118;12.146;2023-01-08T03:22:10;97006.44;;;4.04;99.31
62025;BME280;47978;49.118;12.146;2023-01-08T03:26:14;97005.34;;;4.10;99.15
62025;BME280;47978;49.118;12.146;2023-01-08T03:30:17;97006.97;;;4.06;99.62
62025;BME280;47978;49.118;12.146;2023-01-08T03:34:20;97003.44;;;4.11;99.20
62025;BME280;47978;49.118;12.146;2023-01-08T03:38:24;97022.59;;;4.11;99.16
62025;BME280;47978;49.118;12.146;2023-01-08T03:42:26;97019.56;;;4.12;97.55
62025;BME280;47978;49.118;12.146;2023-01-08T03:46:30;97013.00;;;3.98;95.65
62025;BME280;47978;49.118;12.146;2023-01-08T03:50:35;96995.53;;;3.94;94.07
62025;BME280;47978;49.118;12.146;2023-01-08T03:54:36;96991.41;;;3.81;94.67
62025;BME280;47978;49.118;12.146;2023-01-08T03:58:38;96988.16;;;3.79;96.03
62025;BME280;47978;49.118;12.146;2023-01-08T04:02:39;96999.38;;;3.82;96.37
62025;BME280;47978;49.118;12.146;2023-01-08T04:06:42;96995.22;;;3.95;94.34
62025;BME280;47978;49.118;12.146;2023-01-08T04:10:43;96994.16;;;3.55;93.17
62025;BME280;47978;49.118;12.146;2023-01-08T04:14:45;96986.25;;;3.49;93.30
62025;BME280;47978;49.118;12.146;2023-01-08T04:18:46;96981.59;;;3.44;92.19
62025;BME280;47978;49.118;12.146;2023-01-08T04:22:49;96978.59;;;3.30;92.48
62025;BME280;47978;49.118;12.146;2023-01-08T04:26:50;96969.81;;;3.03;94.35
62025;BME280;47978;49.118;12.146;2023-01-08T04:30:51;96979.88;;;2.92;94.22
62025;BME280;47978;49.118;12.146;2023-01-08T04:34:53;96956.69;;;2.95;94.11
62025;BME280;47978;49.118;12.146;2023-01-08T04:38:56;96955.84;;;2.89;93.00
62025;BME280;47978;49.118;12.146;2023-01-08T04:42:57;96939.47;;;2.74;93.36
62025;BME280;47978;49.118;12.146;2023-01-08T04:46:58;96928.81;;;2.82;92.22
62025;BME280;47978;49.118;12.146;2023-01-08T04:51:01;96924.66;;;2.64;92.59
62025;BME280;47978;49.118;12.146;2023-01-08T04:55:04;96917.31;;;2.70;91.99
62025;BME280;47978;49.118;12.146;2023-01-08T04:59:06;96909.34;;;2.43;93.43
62025;BME280;47978;49.118;12.146;2023-01-08T05:03:07;96911.81;;;2.50;92.35
62025;BME280;47978;49.118;12.146;2023-01-08T05:07:08;96903.31;;;2.36;93.29
62025;BME280;47978;49.118;12.146;2023-01-08T05:11:11;96901.94;;;2.38;93.08
62025;BME280;47978;49.118;12.146;2023-01-08T05:15:13;96897.84;;;2.25;92.80
62025;BME280;47978;49.118;12.146;2023-01-08T05:19:14;96886.31;;;2.13;93.38
62025;BME280;47978;49.118;12.146;2023-01-08T05:23:15;96884.94;;;2.06;93.73
62025;BME280;47978;49.118;12.146;2023-01-08T05:27:18;96894.53;;;2.23;92.25
62025;BME280;47978;49.118;12.146;2023-01-08T05:31:20;96889.06;;;2.18;93.19
62025;BME280;47978;49.118;12.146;2023-01-08T05:35:21;96887.66;;;2.06;94.53
62025;BME280;47978;49.118;12.146;2023-01-08T05:39:23;96893.19;;;2.26;93.52
62025;BME280;47978;49.118;12.146;2023-01-08T05:43:26;96897.53;;;2.22;93.37
62025;BME280;47978;49.118;12.146;2023-01-08T05:47:28;96904.06;;;2.16;93.49
62025;BME280;47978;49.118;12.146;2023-01-08T05:51:29;96892.56;;;2.03;94.21
62025;BME280;47978;49.118;12.146;2023-01-08T05:55:31;96891.25;;;2.11;93.78
62025;BME280;47978;49.118;12.146;2023-01-08T05:59:33;96897.53;;;2.22;93.05
62025;BME280;47978;49.118;12.146;2023-01-08T06:03:35;96887.91;;;2.04;93.82
62025;BME280;47978;49.118;12.146;2023-01-08T06:07:36;96891.13;;;1.86;94.63
62025;BME280;47978;49.118;12.146;2023-01-08T06:11:37;96890.09;;;1.97;92.85
62025;BME280;47978;49.118;12.146;2023-01-08T06:15:40;96906.84;;;1.73;94.27
62025;BME280;47978;49.118;12.146;2023-01-08T06:19:42;96904.97;;;1.74;94.26
62025;BME280;47978;49.118;12.146;2023-01-08T06:23:43;96907.59;;;1.58;94.35
62025;BME280;47978;49.118;12.146;2023-01-08T06:27:47;96911.41;;;1.57;94.31
62025;BME280;47978;49.118;12.146;2023-01-08T06:31:51;96914.69;;;1.60;94.00
62025;BME280;47978;49.118;12.146;2023-01-08T06:35:52;96894.44;;;1.50;94.33
62025;BME280;47978;49.118;12.146;2023-01-08T06:39:54;96891.19;;;1.53;94.84
62025;BME280;47978;49.118;12.146;2023-01-08T06:43:55;96884.72;;;1.65;94.89
62025;BME280;47978;49.118;12.146;2023-01-08T06:48:00;96889.75;;;1.83;93.24
62025;BME280;47978;49.118;12.146;2023-01-08T06:52:01;96895.16;;;1.78;94.19
62025;BME280;47978;49.118;12.146;2023-01-08T06:56:03;96900.28;;;1.69;94.02
62025;BME280;47978;49.118;12.146;2023-01-08T07:00:05;96910.69;;;1.77;93.61
62025;BME280;47978;49.118;12.146;2023-01-08T07:04:08;96900.88;;;1.71;93.87
62025;BME280;47978;49.118;12.146;2023-01-08T07:08:09;96906.78;;;1.58;94.31
62025;BME280;47978;49.118;12.146;2023-01-08T07:12:11;96895.09;;;1.63;93.60
62025;BME280;47978;49.118;12.146;2023-01-08T07:16:13;96901.72;;;1.77;92.99
62025;BME280;47978;49.118;12.146;2023-01-08T07:20:16;96903.84;;;1.70;93.39
62025;BME280;47978;49.118;12.146;2023-01-08T07:24:17;96896.78;;;1.74;94.08
62025;BME280;47978;49.118;12.146;2023-01-08T07:28:19;96898.50;;;1.85;94.21
62025;BME280;47978;49.118;12.146;2023-01-08T07:32:20;96894.59;;;1.71;94.80
62025;BME280;47978;49.118;12.146;2023-01-08T07:36:23;96899.56;;;1.84;95.42
62025;BME280;47978;49.118;12.146;2023-01-08T07:40:24;96907.81;;;2.05;95.27
62025;BME280;47978;49.118;12.146;2023-01-08T07:44:26;96892.31;;;2.05;96.37
62025;BME280;47978;49.118;12.146;2023-01-08T07:48:27;96904.13;;;2.31;95.05
62025;BME280;47978;49.118;12.146;2023-01-08T07:52:30;96901.72;;;2.50;94.90
62025;BME280;47978;49.118;12.146;2023-01-08T07:56:31;96897.91;;;2.46;94.96
62025;BME280;47978;49.118;12.146;2023-01-08T08:00:33;96907.75;;;2.57;95.30
62025;BME280;47978;49.118;12.146;2023-01-08T08:04:35;96902.00;;;2.59;94.61
62025;BME280;47978;49.118;12.146;2023-01-08T08:08:38;96905.28;;;2.61;95.03
62025;BME280;47978;49.118;12.146;2023-01-08T08:12:43;96912.94;;;2.64;94.91
62025;BME280;47978;49.118;12.146;2023-01-08T08:16:44;96912.44;;;2.77;94.02
62025;BME280;47978;49.118;12.146;2023-01-08T08:20:45;96897.69;;;2.83;94.45
62025;BME280;47978;49.118;12.146;2023-01-08T08:24:48;96909.16;;;2.80;94.59
62025;BME280;47978;49.118;12.146;2023-01-08T08:28:50;96908.91;;;2.97;93.73
62025;BME280;47978;49.118;12.146;2023-01-08T08:32:51;96912.72;;;3.01;94.06
62025;BME280;47978;49.118;12.146;2023-01-08T08:36:53;96904.25;;;3.13;94.20
62025;BME280;47978;49.118;12.146;2023-01-08T08:40:55;96892.25;;;3.34;93.69
62025;BME280;47978;49.118;12.146;2023-01-08T08:44:57;96908.06;;;3.58;92.29
62025;BME280;47978;49.118;12.146;2023-01-08T08:48:58;96902.59;;;3.73;92.08
62025;BME280;47978;49.118;12.146;2023-01-08T08:53:00;96911.84;;;3.93;90.89
62025;BME280;47978;49.118;12.146;2023-01-08T08:57:03;96908.31;;;3.82;91.75
62025;BME280;47978;49.118;12.146;2023-01-08T09:01:04;96927.06;;;4.14;90.77
62025;BME280;47978;49.118;12.146;2023-01-08T09:05:06;96919.19;;;4.08;91.29
62025;BME280;47978;49.118;12.146;2023-01-08T09:09:07;96915.56;;;4.22;89.81
62025;BME280;47978;49.118;12.146;2023-01-08T09:13:10;96914.91;;;4.46;89.87
62025;BME280;47978;49.118;12.146;2023-01-08T09:17:12;96911.69;;;4.28;90.43
62025;BME280;47978;49.118;12.146;2023-01-08T09:21:13;96907.63;;;4.21;91.27
62025;BME280;47978;49.118;12.146;2023-01-08T09:25:15;96917.06;;;4.49;89.84
62025;BME280;47978;49.118;12.146;2023-01-08T09:29:17;96906.41;;;4.53;90.19
62025;BME280;47978;49.118;12.146;2023-01-08T09:33:19;96919.81;;;4.54;90.27
62025;BME280;47978;49.118;12.146;2023-01-08T09:37:20;96936.22;;;4.54;90.17
62025;BME280;47978;49.118;12.146;2023-01-08T09:41:23;96928.91;;;4.39;90.97
62025;BME280;47978;49.118;12.146;2023-01-08T09:45:30;96922.50;;;4.64;90.17
62025;BME280;47978;49.118;12.146;2023-01-08T09:49:35;96904.06;;;4.75;88.49
62025;BME280;47978;49.118;12.146;2023-01-08T09:53:38;96896.72;;;4.70;89.02
62025;BME280;47978;49.118;12.146;2023-01-08T09:57:39;96903.19;;;4.85;89.19
62025;BME280;47978;49.118;12.146;2023-01-08T10:01:42;96914.69;;;4.87;89.93
62025;BME280;47978;49.118;12.146;2023-01-08T10:05:44;96891.75;;;5.12;89.47
62025;BME280;47978;49.118;12.146;2023-01-08T10:09:46;96893.41;;;5.13;89.48
62025;BME280;47978;49.118;12.146;2023-01-08T10:13:48;96883.44;;;5.27;88.43
62025;BME280;47978;49.118;12.146;2023-01-08T10:17:53;96874.31;;;5.32;89.02
62025;BME280;47978;49.118;12.146;2023-01-08T10:21:59;96871.75;;;5.46;87.57
62025;BME280;47978;49.118;12.146;2023-01-08T10:26:01;96857.41;;;5.54;85.95
62025;BME280;47978;49.118;12.146;2023-01-08T10:30:03;96848.13;;;5.50;85.69
62025;BME280;47978;49.118;12.146;2023-01-08T10:34:09;96850.75;;;5.60;86.28
62025;BME280;47978;49.118;12.146;2023-01-08T10:38:20;96853.22;;;5.85;84.92
62025;BME280;47978;49.118;12.146;2023-01-08T10:42:24;96841.06;;;5.97;83.96
62025;BME280;47978;49.118;12.146;2023-01-08T10:46:26;96848.38;;;5.77;84.12
62025;BME280;47978;49.118;12.146;2023-01-08T10:50:30;96830.53;;;5.80;84.04
62025;BME280;47978;49.118;12.146;2023-01-08T10:54:33;96828.31;;;6.06;84.38
62025;BME280;47978;49.118;12.146;2023-01-08T10:58:39;96821.53;;;6.22;83.58
62025;BME280;47978;49.118;12.146;2023-01-08T11:02:41;96823.84;;;6.34;86.14
62025;BME280;47978;49.118;12.146;2023-01-08T11:06:45;96820.56;;;6.13;87.98
62025;BME280;47978;49.118;12.146;2023-01-08T11:10:51;96823.00;;;6.15;87.46
62025;BME280;47978;49.118;12.146;2023-01-08T11:14:53;96824.72;;;6.11;87.38
62025;BME280;47978;49.118;12.146;2023-01-08T11:18:55;96813.19;;;6.08;86.82
62025;BME280;47978;49.118;12.146;2023-01-08T11:23:04;96782.50;;;6.06;85.83
62025;BME280;47978;49.118;12.146;2023-01-08T11:27:07;96797.25;;;6.11;86.79
62025;BME280;47978;49.118;12.146;2023-01-08T11:31:17;96779.50;;;6.03;86.95
62025;BME280;47978;49.118;12.146;2023-01-08T11:35:23;96796.41;;;6.15;86.97
62025;BME280;47978;49.118;12.146;2023-01-08T11:39:26;96800.00;;;6.11;86.39
62025;BME280;47978;49.118;12.146;2023-01-08T11:43:29;96779.97;;;6.10;85.61
62025;BME280;47978;49.118;12.146;2023-01-08T11:47:40;96794.06;;;6.03;84.36
62025;BME280;47978;49.118;12.146;2023-01-08T11:51:50;96801.47;;;5.79;84.50
62025;BME280;47978;49.118;12.146;2023-01-08T11:56:01;96796.56;;;5.76;85.17
62025;BME280;47978;49.118;12.146;2023-01-08T12:00:15;96804.59;;;5.91;85.09
62025;BME280;47978;49.118;12.146;2023-01-08T12:04:33;96797.78;;;5.89;85.82
62025;BME280;47978;49.118;12.146;2023-01-08T12:08:39;96791.41;;;5.98;85.21
62025;BME280;47978;49.118;12.146;2023-01-08T12:12:49;96788.88;;;6.02;83.88
62025;BME280;47978;49.118;12.146;2023-01-08T12:17:00;96776.50;;;6.04;83.08
62025;BME280;47978;49.118;12.146;2023-01-08T12:21:05;96774.03;;;6.03;83.25
62025;BME280;47978;49.118;12.146;2023-01-08T12:25:20;96768.03;;;5.77;83.66
62025;BME280;47978;49.118;12.146;2023-01-08T12:29:41;96763.13;;;5.74;84.30
62025;BME280;47978;49.118;12.146;2023-01-08T12:33:46;96743.63;;;5.75;84.69
62025;BME280;47978;49.118;12.146;2023-01-08T12:37:50;96751.28;;;5.54;86.05
62025;BME280;47978;49.118;12.146;2023-01-08T12:41:53;96740.25;;;5.83;85.43
62025;BME280;47978;49.118;12.146;2023-01-08T12:45:58;96744.16;;;6.01;85.38
62025;BME280;47978;49.118;12.146;2023-01-08T12:50:03;96752.81;;;6.08;84.17
62025;BME280;47978;49.118;12.146;2023-01-08T12:54:07;96749.47;;;6.12;84.38
62025;BME280;47978;49.118;12.146;2023-01-08T13:02:33;96748.97;;;6.10;83.96
62025;BME280;47978;49.118;12.146;2023-01-08T13:06:37;96745.72;;;6.07;85.62
62025;BME280;47978;49.118;12.146;2023-01-08T13:10:49;96727.22;;;5.94;83.91
62025;BME280;47978;49.118;12.146;2023-01-08T13:14:51;96724.53;;;5.89;85.06
62025;BME280;47978;49.118;12.146;2023-01-08T13:18:54;96716.25;;;5.94;84.67
62025;BME280;47978;49.118;12.146;2023-01-08T13:22:57;96701.31;;;5.81;84.71
62025;BME280;47978;49.118;12.146;2023-01-08T13:27:08;96704.72;;;5.73;85.20
62025;BME280;47978;49.118;12.146;2023-01-08T13:31:23;96687.44;;;5.73;85.72
62025;BME280;47978;49.118;12.146;2023-01-08T13:35:27;96682.56;;;5.46;86.78
62025;BME280;47978;49.118;12.146;2023-01-08T13:39:34;96680.72;;;5.41;86.98
62025;BME280;47978;49.118;12.146;2023-01-08T13:43:36;96672.31;;;5.32;87.14
62025;BME280;47978;49.118;12.146;2023-01-08T13:47:40;96675.56;;;5.34;87.76
62025;BME280;47978;49.118;12.146;2023-01-08T13:51:44;96671.44;;;5.13;88.08
62025;BME280;47978;49.118;12.146;2023-01-08T13:55:51;96668.44;;;5.09;88.22
62025;BME280;47978;49.118;12.146;2023-01-08T13:59:54;96667.69;;;5.04;88.31
62025;BME280;47978;49.118;12.146;2023-01-08T14:03:57;96673.19;;;5.04;87.91
62025;BME280;47978;49.118;12.146;2023-01-08T14:08:00;96660.53;;;5.08;88.41
62025;BME280;47978;49.118;12.146;2023-01-08T14:12:01;96661.75;;;4.96;88.59
62025;BME280;47978;49.118;12.146;2023-01-08T14:16:03;96662.03;;;4.95;88.53
62025;BME280;47978;49.118;12.146;2023-01-08T14:20:08;96649.84;;;4.82;88.53
62025;BME280;47978;49.118;12.146;2023-01-08T14:24:12;96634.31;;;4.48;90.08
62025;BME280;47978;49.118;12.146;2023-01-08T14:28:16;96654.16;;;4.64;89.52
62025;BME280;47978;49.118;12.146;2023-01-08T14:32:18;96674.09;;;4.70;89.52
62025;BME280;47978;49.118;12.146;2023-01-08T14:36:19;96686.13;;;4.69;89.18
62025;BME280;47978;49.118;12.146;2023-01-08T14:40:29;96697.47;;;4.57;89.19
62025;BME280;47978;49.118;12.146;2023-01-08T14:44:31;96705.09;;;4.60;89.59
62025;BME280;47978;49.118;12.146;2023-01-08T14:48:42;96719.75;;;4.45;90.34
62025;BME280;47978;49.118;12.146;2023-01-08T14:52:44;96708.06;;;4.64;88.99
62025;BME280;47978;49.118;12.146;2023-01-08T14:56:48;96707.56;;;4.62;88.49
62025;BME280;47978;49.118;12.146;2023-01-08T15:00:52;96715.16;;;4.70;88.87
62025;BME280;47978;49.118;12.146;2023-01-08T15:05:02;96712.31;;;4.51;89.20
62025;BME280;47978;49.118;12.146;2023-01-08T15:09:12;96717.00;;;4.45;89.51
62025;BME280;47978;49.118;12.146;2023-01-08T15:13:22;96717.13;;;4.30;89.99
62025;BME280;47978;49.118;12.146;2023-01-08T15:17:24;96709.78;;;4.20;90.71
62025;BME280;47978;49.118;12.146;2023-01-08T15:21:27;96686.47;;;3.94;91.31
62025;BME280;47978;49.118;12.146;2023-01-08T15:25:29;96686.50;;;3.89;92.17
62025;BME280;47978;49.118;12.146;2023-01-08T15:29:32;96684.50;;;3.99;91.72
62025;BME280;47978;49.118;12.146;2023-01-08T15:33:33;96686.50;;;3.83;92.35
62025;BME280;47978;49.118;12.146;2023-01-08T15:37:35;96677.69;;;3.97;92.25
62025;BME280;47978;49.118;12.146;2023-01-08T15:41:37;96684.00;;;3.92;92.57
62025;BME280;47978;49.118;12.146;2023-01-08T15:45:41;96680.78;;;3.85;92.87
62025;BME280;47978;49.118;12.146;2023-01-08T15:49:42;96674.75;;;3.83;93.39
62025;BME280;47978;49.118;12.146;2023-01-08T15:53:44;96668.81;;;3.76;93.62
62025;BME280;47978;49.118;12.146;2023-01-08T15:57:47;96672.16;;;3.57;94.60
62025;BME280;47978;49.118;12.146;2023-01-08T16:01:50;96660.88;;;3.74;94.64
62025;BME280;47978;49.118;12.146;2023-01-08T16:05:51;96644.41;;;3.85;94.17
62025;BME280;47978;49.118;12.146;2023-01-08T16:09:53;96645.84;;;3.72;94.24
62025;BME280;47978;49.118;12.146;2023-01-08T16:13:54;96641.19;;;3.72;94.85
62025;BME280;47978;49.118;12.146;2023-01-08T16:17:57;96623.16;;;3.71;94.83
62025;BME280;47978;49.118;12.146;2023-01-08T16:21:58;96610.06;;;3.68;95.12
62025;BME280;47978;49.118;12.146;2023-01-08T16:26:03;96610.03;;;3.73;95.00
62025;BME280;47978;49.118;12.146;2023-01-08T16:30:05;96616.00;;;3.75;94.51
62025;BME280;47978;49.118;12.146;2023-01-08T16:34:08;96612.72;;;3.78;94.22
62025;BME280;47978;49.118;12.146;2023-01-08T16:38:11;96605.38;;;3.74;94.36
62025;BME280;47978;49.118;12.146;2023-01-08T16:42:12;96601.88;;;3.68;94.54
62025;BME280;47978;49.118;12.146;2023-01-08T16:46:14;96587.66;;;3.66;94.85
62025;BME280;47978;49.118;12.146;2023-01-08T16:50:17;96575.06;;;3.70;94.80
62025;BME280;47978;49.118;12.146;2023-01-08T16:54:19;96566.03;;;3.70;94.63
62025;BME280;47978;49.118;12.146;2023-01-08T16:58:20;96549.34;;;3.71;94.26
62025;BME280;47978;49.118;12.146;2023-01-08T17:02:22;96532.78;;;3.57;94.58
62025;BME280;47978;49.118;12.146;2023-01-08T17:06:24;96531.13;;;3.62;94.23
62025;BME280;47978;49.118;12.146;2023-01-08T17:10:26;96524.56;;;3.57;94.30
62025;BME280;47978;49.118;12.146;2023-01-08T17:14:27;96531.41;;;3.60;94.32
62025;BME280;47978;49.118;12.146;2023-01-08T17:18:29;96519.44;;;3.51;94.61
62025;BME280;47978;49.118;12.146;2023-01-08T17:22:31;96513.09;;;3.55;94.14
62025;BME280;47978;49.118;12.146;2023-01-08T17:26:33;96502.75;;;3.52;93.60
62025;BME280;47978;49.118;12.146;2023-01-08T17:30:34;96487.22;;;3.48;93.87
62025;BME280;47978;49.118;12.146;2023-01-08T17:34:36;96485.75;;;3.21;94.95
62025;BME280;47978;49.118;12.146;2023-01-08T17:38:38;96491.69;;;3.33;94.37
62025;BME280;47978;49.118;12.146;2023-01-08T17:42:40;96491.94;;;3.37;94.56
62025;BME280;47978;49.118;12.146;2023-01-08T17:46:42;96470.66;;;3.34;94.61
62025;BME280;47978;49.118;12.146;2023-01-08T17:50:43;96472.28;;;3.35;94.89
62025;BME280;47978;49.118;12.146;2023-01-08T17:54:47;96475.78;;;3.41;95.17
62025;BME280;47978;49.118;12.146;2023-01-08T17:58:48;96480.44;;;3.40;95.44
62025;BME280;47978;49.118;12.146;2023-01-08T18:02:50;96469.94;;;3.52;95.48
62025;BME280;47978;49.118;12.146;2023-01-08T18:06:52;96447.88;;;3.44;95.46
62025;BME280;47978;49.118;12.146;2023-01-08T18:10:54;96451.97;;;3.46;95.94
62025;BME280;47978;49.118;12.146;2023-01-08T18:15:00;96441.53;;;3.53;95.85
62025;BME280;47978;49.118;12.146;2023-01-08T18:19:01;96424.59;;;3.51;95.66
62025;BME280;47978;49.118;12.146;2023-01-08T18:23:03;96448.47;;;3.70;95.08
62025;BME280;47978;49.118;12.146;2023-01-08T18:27:05;96469.03;;;3.67;95.47
62025;BME280;47978;49.118;12.146;2023-01-08T18:31:08;96443.78;;;3.75;94.57
62025;BME280;47978;49.118;12.146;2023-01-08T18:35:09;96426.31;;;3.71;94.39
62025;BME280;47978;49.118;12.146;2023-01-08T18:39:11;96425.84;;;3.64;94.52
62025;BME280;47978;49.118;12.146;2023-01-08T18:43:13;96394.72;;;3.60;93.69
62025;BME280;47978;49.118;12.146;2023-01-08T18:47:15;96394.03;;;3.44;94.25
62025;BME280;47978;49.118;12.146;2023-01-08T18:51:16;96404.03;;;3.59;93.84
62025;BME280;47978;49.118;12.146;2023-01-08T18:55:17;96408.00;;;3.72;92.87
62025;BME280;47978;49.118;12.146;2023-01-08T18:59:20;96394.09;;;3.68;93.06
62025;BME280;47978;49.118;12.146;2023-01-08T19:03:22;96395.50;;;3.66;93.07
62025;BME280;47978;49.118;12.146;2023-01-08T19:07:23;96384.53;;;3.42;94.11
62025;BME280;47978;49.118;12.146;2023-01-08T19:11:25;96382.00;;;3.50;93.46
62025;BME280;47978;49.118;12.146;2023-01-08T19:15:28;96385.38;;;3.66;92.92
62025;BME280;47978;49.118;12.146;2023-01-08T19:19:29;96362.91;;;3.45;93.15
62025;BME280;47978;49.118;12.146;2023-01-08T19:23:30;96348.75;;;3.38;93.12
62025;BME280;47978;49.118;12.146;2023-01-08T19:27:32;96349.72;;;3.23;93.75
62025;BME280;47978;49.118;12.146;2023-01-08T19:31:35;96356.88;;;3.19;93.75
62025;BME280;47978;49.118;12.146;2023-01-08T19:35:36;96340.75;;;3.18;93.00
62025;BME280;47978;49.118;12.146;2023-01-08T19:39:38;96336.97;;;3.13;92.40
62025;BME280;47978;49.118;12.146;2023-01-08T19:43:39;96327.47;;;3.06;93.39
62025;BME280;47978;49.118;12.146;2023-01-08T19:47:42;96326.97;;;2.99;93.04
62025;BME280;47978;49.118;12.146;2023-01-08T19:51:44;96331.41;;;2.95;92.98
62025;BME280;47978;49.118;12.146;2023-01-08T19:55:45;96311.75;;;2.92;93.64
62025;BME280;47978;49.118;12.146;2023-01-08T19:59:46;96312.44;;;2.79;93.66
62025;BME280;47978;49.118;12.146;2023-01-08T20:03:49;96304.78;;;3.10;91.95
62025;BME280;47978;49.118;12.146;2023-01-08T20:07:51;96313.28;;;3.04;92.16
62025;BME280;47978;49.118;12.146;2023-01-08T20:11:52;96315.00;;;2.95;92.29
62025;BME280;47978;49.118;12.146;2023-01-08T20:15:54;96312.78;;;3.02;92.02
62025;BME280;47978;49.118;12.146;2023-01-08T20:19:57;96300.25;;;2.96;92.88
62025;BME280;47978;49.118;12.146;2023-01-08T20:23:59;96288.22;;;3.02;92.52
62025;BME280;47978;49.118;12.146;2023-01-08T20:28:01;96293.09;;;3.05;91.97
62025;BME280;47978;49.118;12.146;2023-01-08T20:32:02;96280.63;;;2.93;92.70
62025;BME280;47978;49.118;12.146;2023-01-08T20:36:06;96279.53;;;2.95;92.38
62025;BME280;47978;49.118;12.146;2023-01-08T20:40:09;96264.25;;;2.93;92.68
62025;BME280;47978;49.118;12.146;2023-01-08T20:44:10;96256.56;;;2.96;92.28
62025;BME280;47978;49.118;12.146;2023-01-08T20:48:12;96234.34;;;2.78;93.16
62025;BME280;47978;49.118;12.146;2023-01-08T20:52:14;96230.53;;;2.79;93.34
62025;BME280;47978;49.118;12.146;2023-01-08T20:56:16;96229.06;;;2.87;91.70
62025;BME280;47978;49.118;12.146;2023-01-08T21:00:18;96216.81;;;2.84;92.06
62025;BME280;47978;49.118;12.146;2023-01-08T21:04:20;96221.78;;;2.82;93.08
62025;BME280;47978;49.118;12.146;2023-01-08T21:08:22;96220.13;;;2.81;93.46
62025;BME280;47978;49.118;12.146;2023-01-08T21:12:24;96209.56;;;2.75;93.64
62025;BME280;47978;49.118;12.146;2023-01-08T21:16:26;96197.72;;;2.84;93.80
62025;BME280;47978;49.118;12.146;2023-01-08T21:20:28;96204.09;;;2.75;94.11
62025;BME280;47978;49.118;12.146;2023-01-08T21:24:30;96192.56;;;2.83;94.07
62025;BME280;47978;49.118;12.146;2023-01-08T21:28:32;96194.78;;;2.76;94.81
62025;BME280;47978;49.118;12.146;2023-01-08T21:32:34;96181.44;;;2.74;94.60